Time;durP1;ratioP1;P1;durP2;ratioP2;P2;SDS_P1;SDS_P2;PMS_P1;PMS_P2;Temp;Humidity;BMP_temperature;BMP_pressure;BME280_temperature;BME280_humidity;BME280_pressure;Samples;Min_cycle;Max_cycle;Signal;HPM_P1;HPM_P2
2022/01/18 00:00:40;;;;;;;23.05;3.08;;;;;;;4.95;100.00;103689.25;4888821;29;20027;-79
2022/01/18 00:03:06;;;;;;;29.00;4.20;;;;;;;4.73;100.00;103655.00;4900338;29;20059;-79
2022/01/18 00:05:31;;;;;;;27.25;3.13;;;;;;;4.73;100.00;103654.13;4898336;29;20413;-79
2022/01/18 00:07:58;;;;;;;32.15;3.00;;;;;;;4.75;100.00;103654.97;4928507;29;20043;-79
2022/01/18 00:10:27;;;;;;;20.10;2.13;;;;;;;4.68;100.00;103645.53;4901778;29;20036;-79
2022/01/18 00:20:41;;;;;;;16.67;3.15;;;;;;;4.41;100.00;103636.72;4927384;29;20183;-80
2022/01/18 00:23:09;;;;;;;18.60;2.78;;;;;;;4.58;100.00;103688.56;4927122;29;20024;-80
2022/01/18 00:25:36;;;;;;;20.38;2.55;;;;;;;4.46;100.00;103672.28;4885330;29;20483;-80
2022/01/18 00:28:03;;;;;;;17.63;2.50;;;;;;;4.52;100.00;103687.81;4915888;29;20069;-79
2022/01/18 00:35:43;;;;;;;27.48;2.92;;;;;;;4.28;100.00;103663.16;4913838;29;20036;-79
2022/01/18 00:38:28;;;;;;;25.45;3.60;;;;;;;4.14;100.00;103639.16;4909240;29;20031;-79
2022/01/18 00:40:54;;;;;;;21.30;3.17;;;;;;;4.30;100.00;103670.97;4912939;29;20381;-79
2022/01/18 00:43:20;;;;;;;20.40;2.80;;;;;;;4.27;100.00;103676.31;4912260;29;20028;-79
2022/01/18 00:45:45;;;;;;;12.35;1.98;;;;;;;4.05;100.00;103645.47;4930950;29;20035;-79
2022/01/18 00:48:11;;;;;;;16.63;3.63;;;;;;;4.21;100.00;103679.06;4914062;29;20481;-79
2022/01/18 00:50:37;;;;;;;24.30;3.60;;;;;;;4.12;100.00;103686.25;4905852;29;20068;-79
2022/01/18 00:53:08;;;;;;;23.83;3.47;;;;;;;4.00;100.00;103668.22;4927604;29;20064;-79
2022/01/18 00:55:36;;;;;;;;;;;;;;;4.08;100.00;103687.19;4897158;29;20047;-79
2022/01/18 00:58:02;;;;;;;14.25;2.15;;;;;;;4.01;100.00;103675.19;4916747;29;20374;-79
2022/01/18 01:00:27;;;;;;;21.08;3.20;;;;;;;4.02;100.00;103689.97;4900121;29;20068;-79
2022/01/18 01:02:52;;;;;;;30.42;3.40;;;;;;;3.84;100.00;103661.69;4899127;29;20054;-79
2022/01/18 01:05:18;;;;;;;19.48;4.07;;;;;;;3.97;100.00;103668.31;4893539;29;20436;-79
2022/01/18 01:07:43;;;;;;;21.52;3.25;;;;;;;4.03;100.00;103681.25;4902188;29;20091;-80
2022/01/18 01:10:09;;;;;;;26.27;3.22;;;;;;;4.05;100.00;103675.97;4894583;29;20040;-80
2022/01/18 01:12:34;;;;;;;16.55;2.97;;;;;;;3.99;100.00;103666.53;4923332;29;20095;-79
2022/01/18 01:15:08;;;;;;;32.10;3.17;;;;;;;4.21;100.00;103707.81;4926481;29;20121;-80
2022/01/18 01:17:49;;;;;;;14.73;1.90;;;;;;;4.15;100.00;103687.06;4899147;29;20031;-79
2022/01/18 01:44:42;;;;;;;20.00;2.80;;;;;;;4.49;100.00;103682.69;4917285;29;20420;-79
2022/01/18 01:47:10;;;;;;;13.23;2.65;;;;;;;4.51;100.00;103696.56;4931532;29;20027;-80
2022/01/18 01:49:35;;;;;;;20.35;2.97;;;;;;;4.44;100.00;103679.34;4918277;29;20168;-80
2022/01/18 01:52:08;;;;;;;23.60;4.57;;;;;;;4.44;100.00;103668.88;4893393;29;20079;-79
2022/01/18 01:54:33;;;;;;;;;;;;;;;4.53;100.00;103686.06;4918444;29;20043;-79
2022/01/18 01:56:59;;;;;;;10.02;2.38;;;;;;;4.53;100.00;103693.94;4931519;29;19918;-79
2022/01/18 01:59:24;;;;;;;12.73;2.65;;;;;;;4.32;100.00;103659.56;4932715;29;20079;-79
2022/01/18 02:01:50;;;;;;;12.85;1.80;;;;;;;4.53;100.00;103686.94;4907849;29;20118;-82
2022/01/18 02:04:16;;;;;;;14.90;2.42;;;;;;;4.56;100.00;103690.38;4917860;29;20024;-82
2022/01/18 02:06:42;;;;;;;30.67;3.60;;;;;;;4.45;100.00;103675.81;4915872;29;20064;-82
2022/01/18 02:09:08;;;;;;;18.05;1.75;;;;;;;4.43;100.00;103677.59;4917658;29;20130;-82
2022/01/18 02:11:34;;;;;;;8.80;2.40;;;;;;;4.36;100.00;103673.44;4914908;29;20028;-82
2022/01/18 02:14:00;;;;;;;17.33;2.50;;;;;;;4.50;100.00;103694.84;4917175;29;20040;-82
2022/01/18 02:22:15;;;;;;;11.75;1.65;;;;;;;4.42;100.00;103696.81;4896578;29;20040;-82
2022/01/18 02:24:40;;;;;;;10.40;1.83;;;;;;;4.32;100.00;103687.50;4880769;29;20037;-82
2022/01/18 02:27:06;;;;;;;17.05;2.42;;;;;;;4.26;100.00;103679.78;4896881;29;20063;-82
2022/01/18 02:29:31;;;;;;;20.27;1.95;;;;;;;4.35;100.00;103690.00;4881372;29;20036;-82
2022/01/18 02:31:57;;;;;;;7.00;1.52;;;;;;;4.31;100.00;103685.75;4880653;29;20052;-82
2022/01/18 02:34:24;;;;;;;12.60;2.55;;;;;;;4.32;100.00;103683.13;4880868;29;20056;-81
2022/01/18 02:36:50;;;;;;;7.70;1.33;;;;;;;4.31;100.00;103699.72;4895960;29;20036;-82
2022/01/18 02:39:21;;;;;;;13.75;1.90;;;;;;;4.35;100.00;103694.38;4896434;29;20048;-82
2022/01/18 02:41:58;;;;;;;18.60;2.17;;;;;;;4.41;100.00;103697.69;4881074;29;20039;-82
2022/01/18 02:44:24;;;;;;;10.35;1.25;;;;;;;4.47;100.00;103697.53;4880171;29;20140;-81
2022/01/18 02:46:50;;;;;;;13.55;1.52;;;;;;;4.39;100.00;103686.41;4892679;29;20052;-81
2022/01/18 02:49:16;;;;;;;15.27;1.92;;;;;;;4.39;100.00;103686.41;4895104;29;20043;-82
2022/01/18 02:51:41;;;;;;;12.20;1.70;;;;;;;4.42;100.00;103696.81;4893741;29;20037;-82
2022/01/18 02:54:15;;;;;;;21.33;2.28;;;;;;;4.41;100.00;103678.53;4909488;29;20047;-82
2022/01/18 02:56:49;;;;;;;11.32;2.20;;;;;;;4.40;100.00;103672.47;4929038;29;20071;-82
2022/01/18 02:59:25;;;;;;;9.05;1.70;;;;;;;4.48;100.00;103678.31;4926844;29;20023;-82
2022/01/18 03:04:44;;;;;;;20.73;2.13;;;;;;;4.71;100.00;103724.81;4924664;29;20043;-82
2022/01/18 03:07:10;;;;;;;9.93;1.90;;;;;;;4.75;100.00;103725.59;4909864;29;20488;-82
2022/01/18 03:09:36;;;;;;;12.05;2.17;;;;;;;4.78;100.00;103730.72;4913636;29;20020;-82
2022/01/18 03:12:03;;;;;;;24.35;2.10;;;;;;;4.79;100.00;103722.00;4913680;29;20060;-82
2022/01/18 03:14:29;;;;;;;12.80;1.48;;;;;;;4.89;100.00;103718.22;4915186;29;20583;-82
2022/01/18 03:16:54;;;;;;;24.80;2.40;;;;;;;4.92;100.00;103720.75;4912171;29;20032;-82
2022/01/18 03:19:19;;;;;;;13.93;2.25;;;;;;;4.92;100.00;103715.53;4898816;29;20099;-82
2022/01/18 03:21:45;;;;;;;12.10;1.58;;;;;;;4.91;100.00;103711.19;4892989;29;20083;-82
2022/01/18 03:29:35;;;;;;;24.80;2.75;;;;;;;5.07;100.00;103724.69;4923161;29;20499;-82
2022/01/18 03:32:01;;;;;;;9.57;2.08;;;;;;;5.04;100.00;103711.69;4899570;29;20032;-82
2022/01/18 03:34:27;;;;;;;15.25;1.92;;;;;;;5.07;100.00;103705.50;4897951;29;20030;-82
2022/01/18 03:36:53;;;;;;;8.05;1.27;;;;;;;4.95;100.00;103681.41;4914969;29;20028;-82
2022/01/18 03:39:19;;;;;;;16.70;1.55;;;;;;;5.18;100.00;103713.06;4891051;29;20488;-82
2022/01/18 03:41:52;;;;;;;13.65;1.88;;;;;;;5.21;100.00;103712.97;4924785;29;20091;-82
2022/01/18 03:44:18;;;;;;;10.55;2.03;;;;;;;5.23;100.00;103719.88;4898050;29;20055;-82
2022/01/18 03:46:44;;;;;;;15.55;1.67;;;;;;;5.25;100.00;103725.94;4923474;29;20095;-82
2022/01/18 03:49:09;;;;;;;11.57;1.80;;;;;;;5.26;100.00;103719.78;4911949;29;20028;-82
2022/01/18 03:51:35;;;;;;;12.57;1.15;;;;;;;5.11;100.00;103699.28;4925257;29;20043;-82
2022/01/18 03:54:00;;;;;;;12.07;2.00;;;;;;;5.20;100.00;103712.09;4896284;29;20048;-81
2022/01/18 03:56:26;;;;;;;7.53;1.42;;;;;;;5.32;100.00;103727.47;4900770;29;20043;-82
2022/01/18 03:58:51;;;;;;;12.43;1.40;;;;;;;5.25;100.00;103710.22;4927226;29;20535;-81
2022/01/18 04:01:17;;;;;;;11.65;1.38;;;;;;;5.22;100.00;103705.06;4918170;29;20038;-82
2022/01/18 04:03:42;;;;;;;6.68;1.50;;;;;;;5.11;100.00;103691.44;4885055;29;20349;-82
2022/01/18 04:06:07;;;;;;;14.50;1.50;;;;;;;5.24;100.00;103721.59;4924183;29;20149;-82
2022/01/18 04:08:33;;;;;;;10.80;1.55;;;;;;;5.09;100.00;103694.09;4907352;29;20051;-82
2022/01/18 04:10:58;;;;;;;14.30;1.63;;;;;;;5.35;100.00;103743.06;4909555;29;20646;-82
2022/01/18 04:13:24;;;;;;;4.82;1.23;;;;;;;5.15;100.00;103711.38;4910073;29;20035;-82
2022/01/18 04:15:49;;;;;;;9.25;1.35;;;;;;;5.39;100.00;103749.09;4914900;29;20039;-81
2022/01/18 04:29:00;;;;;;;6.28;1.38;;;;;;;5.36;100.00;103731.72;4893416;29;20087;-81
2022/01/18 04:31:27;;;;;;;10.02;1.60;;;;;;;5.43;100.00;103742.88;4878946;29;20052;-82
2022/01/18 04:33:52;;;;;;;10.80;1.55;;;;;;;5.46;100.00;103749.78;4893311;29;20036;-81
2022/01/18 04:36:18;;;;;;;10.20;1.65;;;;;;;5.34;100.00;103725.66;4893225;29;20063;-82
2022/01/18 04:38:44;;;;;;;5.72;1.92;;;;;;;5.39;100.00;103724.66;4876638;29;20044;-81
2022/01/18 04:41:11;;;;;;;6.10;1.20;;;;;;;5.47;100.00;103743.66;4878633;29;20040;-81
2022/01/18 04:48:48;;;;;;;7.03;1.15;;;;;;;5.47;100.00;103725.31;4890880;29;20169;-81
2022/01/18 04:51:13;;;;;;;7.90;1.73;;;;;;;5.48;100.00;103722.63;4877754;29;20139;-82
2022/01/18 04:53:43;;;;;;;6.70;1.02;;;;;;;5.34;100.00;103702.09;4891849;29;20429;-82
2022/01/18 04:56:15;;;;;;;8.00;1.13;;;;;;;5.36;100.00;103712.53;4895993;29;20062;-82
2022/01/18 04:58:41;;;;;;;5.75;1.50;;;;;;;5.35;100.00;103719.50;4903615;29;20144;-81
2022/01/18 05:01:08;;;;;;;10.70;1.20;;;;;;;5.48;100.00;103742.72;4914299;29;20032;-81
2022/01/18 05:03:33;;;;;;;11.45;1.85;;;;;;;5.50;100.00;103741.78;4922445;29;20030;-81
2022/01/18 05:06:07;;;;;;;12.10;1.70;;;;;;;5.53;100.00;103735.56;4898720;29;20039;-81
2022/01/18 05:08:32;;;;;;;7.22;1.40;;;;;;;5.38;100.00;103712.47;4909890;29;20058;-81
2022/01/18 05:10:58;;;;;;;8.32;1.10;;;;;;;5.54;100.00;103732.06;4923963;29;20107;-81
2022/01/18 05:13:52;;;;;;;12.73;1.35;;;;;;;5.54;100.00;103727.69;4892769;29;20040;-81
2022/01/18 05:21:26;;;;;;;10.70;1.65;;;;;;;5.50;100.00;103731.28;4908866;29;20589;-81
2022/01/18 05:23:51;;;;;;;11.10;1.45;;;;;;;5.44;100.00;103725.38;4922603;29;20164;-81
2022/01/18 05:26:17;;;;;;;6.72;1.13;;;;;;;5.41;100.00;103718.47;4906541;29;20536;-81
2022/01/18 05:28:42;;;;;;;11.07;1.23;;;;;;;5.53;100.00;103744.31;4914494;29;20114;-82
2022/01/18 05:31:08;;;;;;;7.07;1.10;;;;;;;5.40;100.00;103719.41;4921505;29;20036;-81
2022/01/18 05:33:33;;;;;;;11.85;1.50;;;;;;;5.45;100.00;103732.34;4894088;29;20043;-81
2022/01/18 05:35:59;;;;;;;6.63;0.80;;;;;;;5.45;100.00;103734.97;4908802;29;20035;-81
2022/01/18 05:38:24;;;;;;;5.55;0.63;;;;;;;5.54;100.00;103739.94;4906966;29;20040;-82
2022/01/18 05:40:49;;;;;;;5.15;1.00;;;;;;;5.50;100.00;103733.06;4906433;29;20489;-81
2022/01/18 05:43:16;;;;;;;12.35;1.38;;;;;;;5.59;100.00;103748.50;4909742;29;20032;-81
2022/01/18 05:45:41;;;;;;;4.28;0.93;;;;;;;5.54;100.00;103742.53;4905777;29;20031;-81
2022/01/18 05:48:07;;;;;;;5.95;1.48;;;;;;;5.49;100.00;103739.22;4913797;29;20403;-81
2022/01/18 05:50:32;;;;;;;23.60;1.23;;;;;;;5.60;100.00;103758.09;4897605;29;20076;-82
2022/01/18 05:52:58;;;;;;;10.05;1.63;;;;;;;5.60;100.00;103759.84;4925346;29;20465;-81
2022/01/18 05:55:23;;;;;;;7.95;0.82;;;;;;;5.62;100.00;103756.28;4921346;29;20044;-82
2022/01/18 05:57:48;;;;;;;3.15;1.08;;;;;;;5.51;100.00;103732.19;4925656;29;20373;-81
2022/01/18 06:00:21;;;;;;;5.28;1.10;;;;;;;5.64;100.00;103758.84;4906052;29;20091;-81
2022/01/18 06:08:06;;;;;;;12.98;1.30;;;;;;;5.52;100.00;103739.13;4925213;29;20043;-82
2022/01/18 06:10:32;;;;;;;1.95;0.63;;;;;;;5.48;100.00;103733.09;4908878;29;20035;-81
2022/01/18 06:13:00;;;;;;;11.15;1.23;;;;;;;5.63;100.00;103757.13;4905954;29;20063;-81
2022/01/18 06:15:26;;;;;;;8.68;1.42;;;;;;;5.62;100.00;103772.00;4919807;29;20923;-82
2022/01/18 06:17:51;;;;;;;8.30;1.00;;;;;;;5.47;100.00;103741.88;4891065;29;20091;-83
2022/01/18 06:20:17;;;;;;;4.30;1.20;;;;;;;5.51;100.00;103750.50;4902013;29;20088;-83
2022/01/18 06:22:42;;;;;;;8.73;0.95;;;;;;;5.59;100.00;103769.47;4889142;29;20040;-83
2022/01/18 06:25:08;;;;;;;5.53;1.25;;;;;;;5.58;100.00;103767.75;4926698;29;20036;-83
2022/01/18 06:27:34;;;;;;;6.20;1.13;;;;;;;5.52;100.00;103770.56;4902609;29;20402;-83
2022/01/18 06:30:00;;;;;;;6.60;1.70;;;;;;;5.54;100.00;103781.84;4892197;29;20028;-82
2022/01/18 06:32:25;;;;;;;9.35;1.58;;;;;;;5.46;100.00;103771.56;4882047;29;20039;-82
2022/01/18 06:34:51;;;;;;;1.90;0.82;;;;;;;5.43;100.00;103776.91;4895213;29;20084;-83
2022/01/18 06:37:17;;;;;;;17.02;1.65;;;;;;;5.46;100.00;103787.28;4894906;29;20067;-82
2022/01/18 06:39:43;;;;;;;4.85;1.30;;;;;;;5.35;100.00;103764.03;4903492;29;20039;-82
2022/01/18 06:42:12;;;;;;;5.15;1.38;;;;;;;5.40;100.00;103755.19;4890698;29;20044;-82
2022/01/18 06:44:38;;;;;;;3.13;0.90;;;;;;;5.42;100.00;103763.84;4909965;29;20477;-82
2022/01/18 06:47:04;;;;;;;7.75;1.85;;;;;;;5.50;100.00;103773.22;4899333;29;20043;-82
2022/01/18 06:49:29;;;;;;;5.10;1.48;;;;;;;5.49;100.00;103776.75;4905093;29;20047;-81
2022/01/18 06:51:55;;;;;;;7.47;1.73;;;;;;;5.50;100.00;103777.59;4905491;29;20042;-81
2022/01/18 06:54:20;;;;;;;3.95;1.70;;;;;;;5.49;100.00;103779.38;4921084;29;20055;-81
2022/01/18 06:56:48;;;;;;;4.28;1.27;;;;;;;5.32;100.00;103752.81;4905652;29;20953;-81
2022/01/18 06:59:15;;;;;;;6.38;1.30;;;;;;;5.49;100.00;103773.28;4905497;29;20068;-81
2022/01/18 07:01:41;;;;;;;4.60;1.55;;;;;;;5.44;100.00;103765.53;4906678;29;20082;-81
2022/01/18 07:04:08;;;;;;;2.58;1.38;;;;;;;5.42;100.00;103754.25;4894738;29;20041;-83
2022/01/18 07:06:34;;;;;;;3.88;1.27;;;;;;;5.39;100.00;103750.88;4909067;29;20012;-82
2022/01/18 07:09:00;;;;;;;3.30;1.10;;;;;;;5.46;100.00;103768.97;4905446;29;20028;-82
2022/01/18 07:11:26;;;;;;;5.70;1.35;;;;;;;5.35;100.00;103753.56;4888285;29;20500;-81
2022/01/18 07:13:51;;;;;;;3.67;1.05;;;;;;;5.45;100.00;103776.88;4901263;29;20119;-81
2022/01/18 07:16:17;;;;;;;6.95;1.80;;;;;;;5.22;100.00;103741.72;4919061;29;20087;-81
2022/01/18 07:18:42;;;;;;;6.20;1.30;;;;;;;5.38;100.00;103770.09;4914848;29;20318;-81
2022/01/18 07:21:09;;;;;;;3.20;0.98;;;;;;;5.46;100.00;103771.56;4908720;29;20091;-84
2022/01/18 07:23:35;;;;;;;1.60;1.08;;;;;;;5.34;100.00;103746.63;4925899;29;20047;-81
2022/01/18 07:26:01;;;;;;;3.08;1.23;;;;;;;5.38;100.00;103749.13;4919121;29;20020;-81
2022/01/18 07:28:26;;;;;;;4.65;1.80;;;;;;;5.42;100.00;103748.13;4904960;29;20265;-81
2022/01/18 07:30:51;;;;;;;3.67;1.17;;;;;;;5.41;100.00;103743.81;4903922;29;20043;-83
2022/01/18 07:33:17;;;;;;;4.90;1.90;;;;;;;5.45;100.00;103755.94;4912984;29;20575;-82
2022/01/18 07:35:44;;;;;;;8.20;2.15;;;;;;;5.52;100.00;103770.56;4903981;29;20436;-83
2022/01/18 07:38:12;;;;;;;4.32;1.27;;;;;;;5.34;100.00;103738.75;4915487;29;20042;-81
2022/01/18 07:40:40;;;;;;;1.67;0.80;;;;;;;5.56;100.00;103766.94;4910259;29;20099;-81
2022/01/18 07:43:05;;;;;;;7.20;1.08;;;;;;;5.36;100.00;103733.47;4914697;29;20036;-82
2022/01/18 07:45:31;;;;;;;9.65;2.75;;;;;;;5.52;100.00;103770.56;4919925;29;20019;-82
2022/01/18 07:47:57;;;;;;;3.85;1.17;;;;;;;5.39;100.00;103763.97;4916778;29;20083;-82
2022/01/18 07:50:23;;;;;;;5.18;1.60;;;;;;;5.36;100.00;103759.66;4892032;29;20040;-83
2022/01/18 07:52:49;;;;;;;12.50;3.65;;;;;;;5.43;100.00;103776.06;4906992;29;20044;-82
2022/01/18 07:55:14;;;;;;;18.25;4.32;;;;;;;5.43;100.00;103778.69;4896024;29;20548;-82
2022/01/18 07:57:43;;;;;;;11.70;2.65;;;;;;;5.22;100.00;103756.59;4920399;29;20393;-82
2022/01/18 08:00:14;;;;;;;5.93;1.65;;;;;;;5.31;100.00;103772.03;4914671;29;20048;-82
2022/01/18 08:02:40;;;;;;;9.40;1.30;;;;;;;5.17;100.00;103753.25;4904338;29;20035;-82
2022/01/18 08:05:08;;;;;;;6.18;1.00;;;;;;;5.35;100.00;103784.13;4897054;29;20038;-85
2022/01/18 08:07:34;;;;;;;5.68;1.50;;;;;;;5.40;100.00;103773.50;4909043;29;20036;-81
2022/01/18 08:09:59;;;;;;;9.50;1.98;;;;;;;5.22;100.00;103744.34;4913563;29;20019;-83
2022/01/18 08:12:25;;;;;;;22.45;2.42;;;;;;;5.35;100.00;103756.16;4908500;29;20123;-83
2022/01/18 08:14:54;;;;;;;6.30;1.77;;;;;;;5.43;100.00;103771.69;4893933;29;20036;-81
2022/01/18 08:17:19;;;;;;;7.13;1.67;;;;;;;5.53;100.00;103791.47;4902717;29;20042;-82
2022/01/18 08:19:45;;;;;;;4.65;2.50;;;;;;;5.33;100.00;103757.13;4926420;29;20428;-82
2022/01/18 08:22:10;;;;;;;8.10;2.20;;;;;;;5.47;100.00;103780.31;4896633;29;20039;-83
2022/01/18 08:24:37;;;;;;;9.95;1.52;;;;;;;5.44;100.00;103772.53;4908373;29;20115;-83
2022/01/18 08:27:03;;;;;;;3.85;1.35;;;;;;;5.54;100.00;103776.59;4912294;29;20123;-83
2022/01/18 08:29:29;;;;;;;5.38;1.70;;;;;;;5.45;100.00;103782.13;4923277;29;20504;-82
2022/01/18 08:31:55;;;;;;;11.63;2.28;;;;;;;5.28;100.00;103761.66;4899486;29;20434;-83
2022/01/18 08:34:21;;;;;;;5.72;1.67;;;;;;;5.47;100.00;103804.75;4904109;29;20035;-83
2022/01/18 08:36:46;;;;;;;20.38;2.13;;;;;;;5.40;100.00;103787.50;4905033;29;20036;-83
2022/01/18 08:39:12;;;;;;;12.57;2.38;;;;;;;5.44;100.00;103783.84;4906038;29;20482;-83
2022/01/18 08:41:38;;;;;;;3.63;1.63;;;;;;;5.48;100.00;103780.25;4924861;29;20504;-82
2022/01/18 08:44:03;;;;;;;3.08;1.40;;;;;;;5.61;100.00;103795.63;4894868;29;20032;-83
2022/01/18 08:46:29;;;;;;;11.00;1.90;;;;;;;5.52;100.00;103775.78;4906751;29;20484;-82
2022/01/18 08:48:54;;;;;;;4.13;1.23;;;;;;;5.72;100.00;103799.63;4923547;29;20036;-83
2022/01/18 08:51:20;;;;;;;3.60;1.15;;;;;;;5.75;100.00;103783.81;4899859;29;20110;-83
2022/01/18 08:53:50;;;;;;;4.93;1.48;;;;;;;5.85;100.00;103802.75;4905013;29;20036;-83
2022/01/18 08:56:16;;;;;;;5.15;1.63;;;;;;;5.85;100.00;103788.78;4914239;29;20152;-83
2022/01/18 08:58:42;;;;;;;14.27;1.92;;;;;;;5.82;100.00;103784.50;4908010;29;20500;-83
2022/01/18 09:01:08;;;;;;;10.90;1.63;;;;;;;5.86;100.00;103806.25;4905628;29;20091;-83
2022/01/18 09:03:33;;;;;;;5.88;1.60;;;;;;;5.82;100.00;103820.34;4878770;29;20524;-83
2022/01/18 09:05:58;;;;;;;10.23;2.33;;;;;;;5.93;100.00;103815.63;4905216;29;20032;-83
2022/01/18 09:08:24;;;;;;;10.10;1.92;;;;;;;5.80;100.00;103801.19;4918962;29;20508;-83
2022/01/18 09:10:50;;;;;;;7.78;2.15;;;;;;;5.81;100.00;103793.25;4904824;29;20399;-82
2022/01/18 09:13:16;;;;;;;11.02;2.08;;;;;;;5.96;100.00;103815.56;4911675;29;20552;-83
2022/01/18 09:15:43;;;;;;;9.10;2.13;;;;;;;6.02;100.00;103812.75;4918613;29;20047;-83
2022/01/18 09:18:09;;;;;;;6.93;2.03;;;;;;;5.83;100.00;103780.97;4906013;29;20555;-83
2022/01/18 09:20:36;;;;;;;7.18;2.72;;;;;;;6.05;100.00;103810.03;4921321;29;20040;-82
2022/01/18 09:23:01;;;;;;;7.50;2.50;;;;;;;6.01;100.00;103791.81;4897370;29;20031;-82
2022/01/18 09:25:29;;;;;;;6.15;2.38;;;;;;;6.28;100.00;103829.44;4894940;29;20364;-82
2022/01/18 09:27:56;;;;;;;8.57;2.85;;;;;;;6.34;100.00;103824.84;4907728;29;20032;-82
2022/01/18 09:30:25;;;;;;;9.98;3.42;;;;;;;6.08;100.00;103807.31;4906166;29;20051;-82
2022/01/18 09:32:51;;;;;;;10.18;2.20;;;;;;;6.18;100.00;103828.84;4920562;29;20055;-82
2022/01/18 09:35:18;;;;;;;5.13;1.90;;;;;;;6.22;100.00;103821.75;4906881;29;20035;-82
2022/01/18 09:37:44;;;;;;;9.07;2.30;;;;;;;6.29;100.00;103832.03;4908050;29;20036;-82
2022/01/18 09:40:11;;;;;;;9.35;2.42;;;;;;;6.17;100.00;103828.00;4927401;29;20031;-82
2022/01/18 09:42:40;;;;;;;10.10;3.10;;;;;;;6.09;100.00;103819.50;4921749;29;20042;-82
2022/01/18 09:45:11;;;;;;;8.30;3.05;;;;;;;5.98;100.00;103816.38;4919750;29;20385;-82
2022/01/18 09:47:38;;;;;;;15.40;3.53;;;;;;;6.09;100.00;103822.13;4917904;29;20043;-83
2022/01/18 09:50:06;;;;;;;15.88;2.53;;;;;;;6.08;100.00;103814.34;4918682;29;20445;-82
2022/01/18 09:52:31;;;;;;;9.27;2.58;;;;;;;6.33;100.00;103819.66;4900966;29;20091;-83
2022/01/18 09:54:56;;;;;;;5.95;2.13;;;;;;;6.54;100.00;103831.22;4901247;29;20060;-83
2022/01/18 09:57:22;;;;;;;6.70;1.60;;;;;;;6.48;100.00;103813.91;4917544;29;20044;-83
2022/01/18 09:59:47;;;;;;;9.15;2.05;;;;;;;6.64;100.00;103831.75;4894461;29;20063;-82
2022/01/18 10:02:13;;;;;;;7.97;1.85;;;;;;;6.73;100.00;103828.84;4907193;29;20040;-82
2022/01/18 10:04:43;;;;;;;3.20;1.70;;;;;;;6.83;100.00;103827.59;4914815;29;20024;-84
2022/01/18 10:07:10;;;;;;;10.93;2.23;;;;;;;7.03;100.00;103834.78;4932616;29;20051;-82
2022/01/18 10:09:36;;;;;;;5.07;1.58;;;;;;;7.21;100.00;103826.28;4918116;29;20288;-82
2022/01/18 10:12:05;;;;;;;10.75;1.75;;;;;;;7.33;100.00;103835.47;4905822;29;20040;-82
2022/01/18 10:14:32;;;;;;;8.32;1.70;;;;;;;7.14;99.42;103797.66;4909805;29;20574;-80
2022/01/18 10:16:58;;;;;;;10.57;2.20;;;;;;;7.55;99.75;103813.66;4918062;29;20035;-82
2022/01/18 10:19:33;;;;;;;7.45;1.40;;;;;;;7.86;97.92;103836.16;4907820;29;20032;-82
2022/01/18 10:22:20;;;;;;;6.93;2.30;;;;;;;8.06;98.19;103838.00;4915160;29;20055;-82
2022/01/18 10:24:45;;;;;;;7.10;1.80;;;;;;;8.06;95.20;103836.25;4922742;29;20032;-81
2022/01/18 10:27:13;;;;;;;15.27;2.40;;;;;;;8.30;95.47;103830.94;4925758;29;20386;-82
2022/01/18 10:29:45;;;;;;;11.07;1.75;;;;;;;8.44;94.43;103836.53;4915173;29;20118;-82
2022/01/18 10:32:23;;;;;;;6.60;1.25;;;;;;;8.52;92.51;103816.00;4925193;29;20035;-82
2022/01/18 10:37:41;;;;;;;7.47;1.88;;;;;;;8.23;92.00;103832.94;4914448;29;20044;-82
2022/01/18 10:40:17;;;;;;;11.80;1.60;;;;;;;8.18;92.58;103817.34;4917764;29;20058;-82
2022/01/18 10:42:49;;;;;;;7.40;1.65;;;;;;;8.13;92.84;103813.19;4912304;29;20028;-80
2022/01/18 10:45:23;;;;;;;;;;;;;;;8.24;92.45;103840.78;4924850;29;20023;-81
2022/01/18 10:48:11;;;;;;;6.30;1.23;;;;;;;7.96;92.56;103827.84;4911694;29;19921;-82
2022/01/18 10:50:39;;;;;;;7.13;1.38;;;;;;;8.00;92.68;103839.97;4919179;29;20119;-82
2022/01/18 10:53:17;;;;;;;4.93;1.20;;;;;;;7.85;93.08;103823.94;4923709;29;20039;-82
2022/01/18 10:55:44;;;;;;;13.07;2.88;;;;;;;7.89;93.98;103836.06;4917181;29;20181;-82
2022/01/18 10:58:14;;;;;;;6.13;1.65;;;;;;;7.53;92.99;103831.25;4912050;29;20520;-82
2022/01/18 11:00:40;;;;;;;4.40;1.20;;;;;;;7.51;93.08;103835.72;4916394;29;20042;-82
2022/01/18 11:03:10;;;;;;;10.68;2.53;;;;;;;7.49;93.60;103838.41;4927903;29;20027;-82
2022/01/18 11:05:38;;;;;;;7.32;2.63;;;;;;;7.45;94.13;103828.06;4907703;29;20039;-82
2022/01/18 11:08:06;;;;;;;11.52;2.28;;;;;;;7.56;95.16;103823.28;4915404;29;20044;-82
2022/01/18 11:10:35;;;;;;;6.80;1.88;;;;;;;7.66;94.71;103819.38;4929095;29;20052;-82
2022/01/18 11:13:06;;;;;;;10.50;2.40;;;;;;;7.67;95.43;103800.06;4929464;29;20032;-82
2022/01/18 11:15:33;;;;;;;;;;;;;;;7.78;93.58;103824.16;4918469;29;20094;-79
2022/01/18 11:18:06;;;;;;;10.88;3.20;;;;;;;7.79;94.60;103823.25;4926394;29;19989;-82
2022/01/18 11:20:37;;;;;;;7.88;2.85;;;;;;;7.60;93.16;103819.63;4923380;29;20381;-81
2022/01/18 11:23:06;;;;;;;11.45;2.00;;;;;;;7.45;94.10;103789.53;4919502;29;20071;-82
2022/01/18 11:25:36;;;;;;;11.55;1.98;;;;;;;7.62;94.72;103812.50;4929299;29;20079;-82
2022/01/18 11:28:03;;;;;;;7.30;2.05;;;;;;;7.39;93.93;103802.88;4910819;29;20075;-82
2022/01/18 11:30:32;;;;;;;10.15;2.92;;;;;;;7.46;94.42;103804.34;4926071;29;20440;-82
2022/01/18 11:33:00;;;;;;;6.28;2.67;;;;;;;7.49;94.38;103817.41;4916622;29;20123;-82
2022/01/18 11:35:50;;;;;;;7.57;2.38;;;;;;;7.56;95.51;103818.88;4914961;29;20082;-83
2022/01/18 11:38:35;;;;;;;10.50;2.90;;;;;;;7.60;95.45;103806.47;4925818;29;20032;-83
2022/01/18 11:41:02;;;;;;;13.07;2.33;;;;;;;7.70;95.00;103809.59;4930947;29;20032;-83
2022/01/18 11:43:45;;;;;;;4.75;2.30;;;;;;;7.67;94.45;103807.97;4909705;29;20024;-83
2022/01/18 11:46:24;;;;;;;12.27;3.38;;;;;;;7.65;94.86;103785.28;4922459;29;20453;-84
2022/01/18 11:48:57;;;;;;;13.60;2.17;;;;;;;7.27;94.50;103796.28;4919789;29;20074;-83
2022/01/18 11:51:35;;;;;;;5.13;1.60;;;;;;;7.14;95.99;103771.38;4919641;29;20119;-82
2022/01/18 11:54:20;;;;;;;9.57;2.00;;;;;;;7.54;95.37;103798.81;4910569;29;20024;-82
2022/01/18 11:56:46;;;;;;;9.93;2.00;;;;;;;7.58;94.83;103793.38;4927696;29;20036;-82
2022/01/18 11:59:14;;;;;;;7.97;2.38;;;;;;;7.78;94.27;103786.50;4910768;29;20042;-82
2022/01/18 12:01:48;;;;;;;6.18;2.47;;;;;;;7.88;93.69;103787.84;4918403;29;20092;-82
2022/01/18 12:04:34;;;;;;;5.65;1.90;;;;;;;7.79;93.56;103770.66;4917537;29;20170;-82
2022/01/18 12:06:59;;;;;;;5.95;2.70;;;;;;;7.67;92.87;103779.03;4909792;29;20047;-82
2022/01/18 12:09:48;;;;;;;8.43;2.72;;;;;;;7.41;93.85;103753.75;4902990;29;20400;-82
2022/01/18 12:12:41;;;;;;;7.57;2.00;;;;;;;7.16;94.13;103785.31;4919654;29;20573;-82
2022/01/18 12:15:16;;;;;;;14.63;2.45;;;;;;;7.39;95.23;103795.84;4924106;29;20433;-82
2022/01/18 12:18:40;;;;;;;14.85;3.03;;;;;;;7.51;95.39;103789.28;4921812;29;20511;-82
2022/01/18 12:21:18;;;;;;;10.65;2.00;;;;;;;7.28;94.94;103771.75;4843861;29;20033;-82
2022/01/18 12:23:44;;;;;;;5.55;2.40;;;;;;;7.12;95.79;103750.44;4843820;29;20041;-83
2022/01/18 12:26:37;;;;;;;10.32;2.15;;;;;;;7.43;95.03;103785.25;4857579;29;20044;-82
2022/01/18 12:29:21;;;;;;;8.02;2.22;;;;;;;7.50;95.50;103794.59;4866176;29;20033;-82
2022/01/18 12:34:47;;;;;;;6.30;1.58;;;;;;;7.06;95.66;103786.59;4865552;29;20033;-82
2022/01/18 12:37:20;;;;;;;3.92;1.33;;;;;;;7.17;96.11;103784.41;4853955;29;20108;-82
2022/01/18 12:39:54;;;;;;;10.32;2.15;;;;;;;7.21;96.09;103786.03;4850180;29;20097;-83
2022/01/18 12:45:18;;;;;;;10.18;2.47;;;;;;;7.24;96.62;103764.88;4864384;29;20116;-82
2022/01/18 12:47:48;;;;;;;9.40;3.67;;;;;;;7.39;94.93;103790.59;4849049;29;20398;-82
2022/01/18 12:50:23;;;;;;;5.15;2.33;;;;;;;7.30;94.70;103758.56;4858215;29;20040;-82
2022/01/18 12:52:52;;;;;;;6.85;3.03;;;;;;;7.07;94.33;103751.50;4916009;29;20055;-82
2022/01/18 12:55:32;;;;;;;9.82;2.83;;;;;;;7.02;94.83;103777.09;4915624;29;20044;-83